createdAt,value
2023-02-23T00:03:45.232Z,78.10
2023-02-23T00:08:51.068Z,70.88
2023-02-23T00:13:58.446Z,80.77
2023-02-23T00:19:04.154Z,70.78
2023-02-23T00:24:13.336Z,78.20
2023-02-23T00:29:22.292Z,64.63
2023-02-23T00:34:28.496Z,68.28
2023-02-23T00:44:41.808Z,85.90
2023-02-23T00:49:48.119Z,83.40
2023-02-23T00:54:54.104Z,66.22
2023-02-23T00:59:59.865Z,65.83
2023-02-23T01:05:05.779Z,62.78
2023-02-23T01:10:20.790Z,73.30
2023-02-23T01:15:26.965Z,73.45
2023-02-23T01:20:32.731Z,74.32
2023-02-23T01:25:39.650Z,63.97
2023-02-23T01:30:46.647Z,65.05
2023-02-23T01:36:02.490Z,61.83
2023-02-23T01:41:12.089Z,56.13
2023-02-23T01:46:18.682Z,53.35
2023-02-23T01:51:29.851Z,59.28
2023-02-23T01:56:45.368Z,64.47
2023-02-23T02:01:51.998Z,68.80
2023-02-23T02:06:58.462Z,55.92
2023-02-23T02:12:04.209Z,44.00
2023-02-23T02:17:15.888Z,47.00
2023-02-23T02:22:34.010Z,58.20
2023-02-23T02:28:10.201Z,58.30
2023-02-23T02:33:28.042Z,48.45
2023-02-23T02:38:45.649Z,51.38
2023-02-23T02:43:58.098Z,48.72
2023-02-23T02:49:12.974Z,52.50
2023-02-23T02:54:34.351Z,52.58
2023-02-23T03:00:07.233Z,43.00
2023-02-23T03:05:37.063Z,56.10
2023-02-23T03:11:19.759Z,50.65
2023-02-23T03:16:51.351Z,51.03
2023-02-23T03:22:49.002Z,49.95
2023-02-23T03:28:19.613Z,47.08
2023-02-23T03:34:23.380Z,49.63
2023-02-23T03:39:59.198Z,42.25
2023-02-23T03:45:31.621Z,57.13
2023-02-23T03:51:17.954Z,52.72
2023-02-23T03:56:46.121Z,44.13
2023-02-23T04:02:13.989Z,44.65
2023-02-23T04:07:40.078Z,49.28
2023-02-23T04:13:06.961Z,45.78
2023-02-23T04:18:17.886Z,46.20
2023-02-23T04:23:26.454Z,50.58
2023-02-23T04:28:32.073Z,40.55
2023-02-23T04:33:38.106Z,42.37
2023-02-23T04:38:44.694Z,42.95
2023-02-23T04:43:51.040Z,51.28
2023-02-23T04:48:57.413Z,48.78
2023-02-23T04:54:03.991Z,30.42
2023-02-23T04:59:10.120Z,45.78
2023-02-23T05:04:16.203Z,42.90
2023-02-23T05:09:22.794Z,50.80
2023-02-23T05:14:29.171Z,43.28
2023-02-23T05:19:35.266Z,48.38
2023-02-23T05:24:42.986Z,36.72
2023-02-23T05:29:55.418Z,35.97
2023-02-23T05:35:02.996Z,40.28
2023-02-23T05:40:10.863Z,43.20
2023-02-23T05:45:17.165Z,36.00
2023-02-23T05:50:25.524Z,31.30
2023-02-23T05:55:32.701Z,37.47
2023-02-23T06:00:39.070Z,41.03
2023-02-23T06:10:51.030Z,44.08
2023-02-23T06:21:09.707Z,30.00
2023-02-23T06:26:15.745Z,40.78
2023-02-23T06:31:22.115Z,27.52
2023-02-23T06:36:28.236Z,41.40
2023-02-23T06:41:36.974Z,41.97
2023-02-23T06:46:43.445Z,47.50
2023-02-23T06:56:57.303Z,54.47
2023-02-23T07:02:03.651Z,37.40
2023-02-23T07:07:10.568Z,48.03
2023-02-23T07:12:16.388Z,47.35
2023-02-23T07:17:25.937Z,45.75
2023-02-23T07:22:44.417Z,42.60
2023-02-23T07:27:50.572Z,50.47
2023-02-23T07:32:57.116Z,42.92
2023-02-23T07:38:03.552Z,39.42
2023-02-23T07:43:10.176Z,43.55
2023-02-23T07:48:16.027Z,46.65
2023-02-23T07:53:21.927Z,48.80
2023-02-23T07:58:28.172Z,48.40
2023-02-23T08:03:37.010Z,48.67
2023-02-23T08:08:43.057Z,47.75
2023-02-23T08:13:52.716Z,48.35
2023-02-23T08:19:04.329Z,45.90
2023-02-23T08:24:16.525Z,56.60
2023-02-23T08:29:22.611Z,51.90
2023-02-23T08:39:33.960Z,53.03
2023-02-23T08:44:39.744Z,50.47
2023-02-23T08:49:46.085Z,49.05
2023-02-23T08:54:54.349Z,48.33
2023-02-23T09:00:00.258Z,45.90
2023-02-23T09:05:06.387Z,42.90
2023-02-23T09:10:21.396Z,48.28
2023-02-23T09:15:27.505Z,45.72
2023-02-23T09:20:33.773Z,46.20
2023-02-23T09:30:52.172Z,61.60
2023-02-23T09:35:58.185Z,53.55
2023-02-23T09:41:04.580Z,50.28
2023-02-23T09:47:03.393Z,55.80
2023-02-23T09:52:20.297Z,50.22
2023-02-23T09:57:35.536Z,48.55
2023-02-23T10:03:05.529Z,47.30
2023-02-23T10:08:35.024Z,47.13
2023-02-23T10:14:02.112Z,42.80
2023-02-23T10:19:45.969Z,48.10
2023-02-23T10:25:19.811Z,47.03
2023-02-23T10:30:34.832Z,46.20
2023-02-23T10:35:42.563Z,44.28
2023-02-23T10:40:56.131Z,42.50
2023-02-23T10:46:02.166Z,42.58
2023-02-23T10:51:16.472Z,49.70
2023-02-23T10:56:22.905Z,55.90
2023-02-23T11:02:01.521Z,44.88
2023-02-23T11:07:17.821Z,41.10
2023-02-23T11:12:45.953Z,43.97
2023-02-23T11:18:01.696Z,53.88
2023-02-23T11:23:30.448Z,42.30
2023-02-23T11:28:46.746Z,54.70
2023-02-23T11:45:43.820Z,46.58
2023-02-23T11:51:33.435Z,43.90
2023-02-23T11:56:49.846Z,44.25
2023-02-23T12:01:59.247Z,59.67
2023-02-23T12:07:43.304Z,51.15
2023-02-23T12:13:10.686Z,46.38
2023-02-23T12:18:40.678Z,65.38
2023-02-23T12:23:52.790Z,60.85
2023-02-23T12:29:07.622Z,50.20
2023-02-23T12:34:40.112Z,56.03
2023-02-23T12:40:00.887Z,54.53
2023-02-23T12:45:12.617Z,54.35
2023-02-23T12:50:55.477Z,53.15
2023-02-23T12:56:29.538Z,63.20
2023-02-23T13:14:58.758Z,68.43
2023-02-23T13:20:16.755Z,72.80
2023-02-23T13:25:59.772Z,67.47
2023-02-23T13:32:20.196Z,74.28
2023-02-23T13:43:56.926Z,76.70
2023-02-23T13:49:45.734Z,85.00
2023-02-23T13:55:11.527Z,86.80
2023-02-23T14:00:40.366Z,81.75
2023-02-23T14:06:02.597Z,90.18
2023-02-23T14:11:41.065Z,77.82
2023-02-23T14:17:19.673Z,76.32
2023-02-23T14:23:11.383Z,73.18
2023-02-23T14:28:47.530Z,90.20
2023-02-23T14:34:23.604Z,74.05
2023-02-23T14:39:43.385Z,68.28
2023-02-23T14:56:08.392Z,63.28
2023-02-23T15:01:45.025Z,84.35
2023-02-23T15:06:54.845Z,81.18
2023-02-23T15:12:24.172Z,85.07
2023-02-23T15:17:45.168Z,81.78
2023-02-23T15:23:02.207Z,73.10
2023-02-23T15:28:36.658Z,78.47
2023-02-23T15:33:44.334Z,71.82
2023-02-23T15:39:00.278Z,79.00
2023-02-23T15:44:29.573Z,64.63
2023-02-23T15:49:48.899Z,73.82
2023-02-23T15:55:10.719Z,68.13
2023-02-23T16:01:03.747Z,73.10
2023-02-23T16:06:33.128Z,73.00
2023-02-23T16:11:39.828Z,76.40
2023-02-23T16:16:49.896Z,68.05
2023-02-23T16:22:01.345Z,72.90
2023-02-23T16:27:10.190Z,79.85
2023-02-23T16:32:27.050Z,89.97
2023-02-23T16:37:33.391Z,71.50
2023-02-23T16:47:49.485Z,78.22
2023-02-23T16:52:56.631Z,106.55
2023-02-23T16:58:05.565Z,113.85
2023-02-23T17:03:34.200Z,249.70
2023-02-23T17:08:52.184Z,92.07
2023-02-23T17:14:02.512Z,107.90
2023-02-23T17:19:08.815Z,98.13
2023-02-23T17:24:15.134Z,157.38
2023-02-23T17:29:21.352Z,81.68
2023-02-23T17:34:28.044Z,118.57
2023-02-23T17:39:39.044Z,149.43
2023-02-23T17:44:45.597Z,121.47
2023-02-23T17:49:57.681Z,85.15
2023-02-23T17:55:04.406Z,95.93
2023-02-23T18:00:14.527Z,109.38
2023-02-23T18:05:20.822Z,134.25
2023-02-23T18:10:27.517Z,152.40
2023-02-23T18:15:37.349Z,98.10
2023-02-23T18:20:50.051Z,183.63
2023-02-23T18:25:57.471Z,141.25
2023-02-23T18:31:04.157Z,137.20
2023-02-23T18:36:37.729Z,117.95
2023-02-23T18:41:43.894Z,109.88
2023-02-23T18:51:56.088Z,77.13
2023-02-23T18:57:02.340Z,98.70
2023-02-23T19:02:08.273Z,103.53
2023-02-23T19:07:14.108Z,87.57
2023-02-23T19:12:20.025Z,140.85
2023-02-23T19:22:32.293Z,103.60
2023-02-23T19:27:38.395Z,109.00
2023-02-23T19:32:44.702Z,70.85
2023-02-23T19:37:54.497Z,90.72
2023-02-23T19:43:00.627Z,77.53
2023-02-23T19:53:12.273Z,67.93
2023-02-23T19:58:18.143Z,74.07
2023-02-23T20:03:29.229Z,66.65
2023-02-23T20:08:35.622Z,62.75
2023-02-23T20:13:41.347Z,75.03
2023-02-23T20:18:47.823Z,77.85
2023-02-23T20:23:55.144Z,63.33
2023-02-23T20:29:00.957Z,65.35
2023-02-23T20:34:10.063Z,63.78
2023-02-23T20:39:18.450Z,68.00
2023-02-23T20:44:26.362Z,66.07
2023-02-23T20:49:32.761Z,74.57
2023-02-23T20:54:38.407Z,64.03
2023-02-23T20:59:45.373Z,60.67
2023-02-23T21:04:51.610Z,62.60
2023-02-23T21:10:00.530Z,71.20
2023-02-23T21:15:07.191Z,64.55
2023-02-23T21:20:15.506Z,68.60
2023-02-23T21:25:25.051Z,74.00
2023-02-23T21:30:32.101Z,66.50
2023-02-23T21:35:39.546Z,61.88
2023-02-23T21:40:45.161Z,58.45
2023-02-23T21:45:51.327Z,56.60
2023-02-23T21:51:04.059Z,70.32
2023-02-23T21:56:21.912Z,69.68
2023-02-23T22:01:35.946Z,67.18
2023-02-23T22:06:45.221Z,56.38
2023-02-23T22:11:50.970Z,62.05
2023-02-23T22:16:57.357Z,64.25
2023-02-23T22:22:03.348Z,52.60
2023-02-23T22:27:12.083Z,62.20
2023-02-23T22:32:19.304Z,60.03
2023-02-23T22:37:31.267Z,59.95
2023-02-23T22:42:37.498Z,70.07
2023-02-23T22:47:43.863Z,69.97
2023-02-23T22:52:49.796Z,60.63
2023-02-23T22:57:57.227Z,66.35
2023-02-23T23:03:07.145Z,63.47
2023-02-23T23:08:14.932Z,85.75
2023-02-23T23:13:21.510Z,71.18
2023-02-23T23:18:30.186Z,76.97
2023-02-23T23:23:36.216Z,72.88
2023-02-23T23:33:50.943Z,54.13
2023-02-23T23:38:57.964Z,77.50
2023-02-23T23:44:07.528Z,93.40
2023-02-23T23:49:35.415Z,109.43
2023-02-23T23:54:42.636Z,49.75
2023-02-23T23:59:50.318Z,80.03
